Time,TemperatureF,DewpointF,PressureIn,WindDirection,WindDirectionDegrees,WindSpeedMPH,WindSpeedGustMPH,Humidity,HourlyPrecipIn,Conditions,Clouds,dailyrainin,SoftwareType,DateUTC
2013-04-19 00:04:00,43.9,34.4,29.65,NNE,22,11.6,11.6,69,0.00,,---,0.00,VWS V14.00,2013-04-19 05:04:00,
2013-04-19 00:09:00,43.7,33.8,29.65,NW,315,11.9,11.9,68,0.00,,---,0.00,VWS V14.00,2013-04-19 05:09:00,
2013-04-19 00:15:00,43.7,33.1,29.65,NW,315,13.0,13.2,66,0.00,,---,0.00,VWS V14.00,2013-04-19 05:15:00,
2013-04-19 00:21:00,43.9,32.9,29.65,West,270,14.4,14.4,65,0.00,,---,0.00,VWS V14.00,2013-04-19 05:21:00,
2013-04-19 00:26:00,43.9,32.5,29.65,NNW,338,16.1,16.1,64,0.00,,---,0.00,VWS V14.00,2013-04-19 05:26:00,
2013-04-19 00:32:00,43.7,31.5,29.65,North,0,9.1,9.1,62,0.00,,---,0.00,VWS V14.00,2013-04-19 05:32:00,
2013-04-19 00:37:00,43.7,31.5,29.65,NW,315,16.7,16.7,62,0.00,,---,0.00,VWS V14.00,2013-04-19 05:37:00,
2013-04-19 00:43:00,43.5,31.4,29.65,North,0,8.8,8.8,62,0.00,,---,0.00,VWS V14.00,2013-04-19 05:43:00,
2013-04-19 00:48:00,43.7,30.7,29.65,North,0,11.1,15.2,60,0.00,,---,0.00,VWS V14.00,2013-04-19 05:48:00,
2013-04-19 00:53:00,43.7,30.3,29.65,NW,315,12.7,12.7,59,0.00,,---,0.00,VWS V14.00,2013-04-19 05:53:00,
2013-04-19 00:59:00,43.3,30.8,29.65,North,0,15.0,15.0,61,0.00,,---,0.00,VWS V14.00,2013-04-19 05:59:00,
2013-04-19 01:04:00,43.3,30.4,29.68,WSW,248,11.1,11.1,60,0.00,,---,0.00,VWS V14.00,2013-04-19 06:04:00,
2013-04-19 01:10:00,43.5,29.7,29.68,NNE,22,11.9,11.9,58,0.00,,---,0.00,VWS V14.00,2013-04-19 06:10:00,
2013-04-19 01:16:00,43.3,30.0,29.68,SW,225,9.1,14.8,59,0.00,,---,0.00,VWS V14.00,2013-04-19 06:16:00,
2013-04-19 01:21:00,43.3,30.0,29.68,NNE,22,8.6,9.0,59,0.00,,---,0.00,VWS V14.00,2013-04-19 06:21:00,
2013-04-19 01:26:00,43.5,30.2,29.68,NW,315,7.7,10.5,59,0.00,,---,0.00,VWS V14.00,2013-04-19 06:26:00,
2013-04-19 01:32:00,43.5,30.2,29.68,North,0,6.0,10.3,59,0.00,,---,0.00,VWS V14.00,2013-04-19 06:32:00,
2013-04-19 01:37:00,43.5,30.6,29.68,NW,315,7.7,10.3,60,0.00,,---,0.00,VWS V14.00,2013-04-19 06:37:00,
2013-04-19 01:42:00,43.3,31.2,29.68,NW,315,2.7,3.4,62,0.00,,---,0.00,VWS V14.00,2013-04-19 06:42:00,
2013-04-19 01:48:00,43.5,31.4,29.65,SSW,202,11.9,11.9,62,0.00,,---,0.00,VWS V14.00,2013-04-19 06:48:00,
2013-04-19 01:53:00,43.5,31.8,29.65,WNW,292,5.2,5.6,63,0.00,,---,0.00,VWS V14.00,2013-04-19 06:53:00,
2013-04-19 01:59:00,43.7,32.0,29.65,NW,315,10.2,10.2,63,0.00,,---,0.00,VWS V14.00,2013-04-19 06:59:00,
2013-04-19 02:05:00,43.7,32.3,29.65,WSW,248,7.7,7.7,64,0.00,,---,0.00,VWS V14.00,2013-04-19 07:05:00,
2013-04-19 02:10:00,43.7,32.7,29.65,WNW,292,7.7,7.7,65,0.00,,---,0.00,VWS V14.00,2013-04-19 07:10:00,
2013-04-19 02:15:00,43.5,32.5,29.65,WNW,292,4.4,4.4,65,0.00,,---,0.00,VWS V14.00,2013-04-19 07:15:00,
2013-04-19 02:20:00,43.7,32.7,29.68,NW,315,5.2,5.4,65,0.00,,---,0.00,VWS V14.00,2013-04-19 07:20:00,
2013-04-19 02:26:00,43.5,32.5,29.68,South,180,7.2,7.2,65,0.00,,---,0.00,VWS V14.00,2013-04-19 07:26:00,
2013-04-19 02:31:00,43.7,32.3,29.68,WNW,292,14.7,14.7,64,0.00,,---,0.00,VWS V14.00,2013-04-19 07:31:00,
2013-04-19 02:37:00,43.7,32.0,29.68,WSW,248,7.7,8.1,63,0.00,,---,0.00,VWS V14.00,2013-04-19 07:37:00,
2013-04-19 02:42:00,43.7,31.5,29.68,WNW,292,4.4,6.3,62,0.00,,---,0.00,VWS V14.00,2013-04-19 07:42:00,
2013-04-19 02:47:00,43.5,31.0,29.68,NNW,338,11.1,11.1,61,0.00,,---,0.00,VWS V14.00,2013-04-19 07:47:00,
2013-04-19 02:53:00,43.5,31.0,29.68,NNW,338,6.9,6.9,61,0.00,,---,0.00,VWS V14.00,2013-04-19 07:53:00,
2013-04-19 02:59:00,43.3,30.4,29.68,NW,315,4.9,7.4,60,0.00,,---,0.00,VWS V14.00,2013-04-19 07:59:00,
2013-04-19 03:05:00,43.3,30.4,29.68,NW,315,6.0,6.0,60,0.00,,---,0.00,VWS V14.00,2013-04-19 08:05:00,
2013-04-19 03:10:00,43.3,29.6,29.68,West,270,5.8,6.5,58,0.00,,---,0.00,VWS V14.00,2013-04-19 08:10:00,
2013-04-19 03:15:00,43.3,29.6,29.68,NNE,22,8.0,8.0,58,0.00,,---,0.00,VWS V14.00,2013-04-19 08:15:00,
2013-04-19 03:20:00,43.3,29.6,29.68,WSW,248,4.4,6.0,58,0.00,,---,0.00,VWS V14.00,2013-04-19 08:20:00,
2013-04-19 03:26:00,43.3,28.7,29.68,North,0,7.2,10.7,56,0.00,,---,0.00,VWS V14.00,2013-04-19 08:26:00,
2013-04-19 03:31:00,43.3,28.7,29.68,WNW,292,8.8,8.8,56,0.00,,---,0.00,VWS V14.00,2013-04-19 08:31:00,
2013-04-19 03:37:00,43.3,29.1,29.68,West,270,6.9,6.9,57,0.00,,---,0.00,VWS V14.00,2013-04-19 08:37:00,
2013-04-19 03:43:00,43.3,29.6,29.68,WNW,292,6.3,6.3,58,0.00,,---,0.00,VWS V14.00,2013-04-19 08:43:00,
2013-04-19 03:48:00,43.3,29.6,29.68,West,270,6.9,6.9,58,0.00,,---,0.00,VWS V14.00,2013-04-19 08:48:00,
2013-04-19 03:53:00,43.3,30.0,29.68,NW,315,4.9,6.0,59,0.00,,---,0.00,VWS V14.00,2013-04-19 08:53:00,
2013-04-19 03:58:00,43.3,30.4,29.68,WSW,248,5.8,5.8,60,0.00,,---,0.00,VWS V14.00,2013-04-19 08:58:00,
2013-04-19 04:04:00,43.3,30.4,29.68,NW,315,4.6,4.6,60,0.00,,---,0.00,VWS V14.00,2013-04-19 09:04:00,
2013-04-19 04:09:00,43.2,30.6,29.68,WNW,292,8.0,8.0,61,0.00,,---,0.00,VWS V14.00,2013-04-19 09:09:00,
2013-04-19 04:15:00,43.3,31.2,29.68,NW,315,4.6,5.8,62,0.00,,---,0.00,VWS V14.00,2013-04-19 09:15:00,
2013-04-19 04:20:00,43.3,30.8,29.68,West,270,7.7,7.7,61,0.00,,---,0.00,VWS V14.00,2013-04-19 09:20:00,
2013-04-19 04:25:00,43.3,30.8,29.68,SSW,202,7.2,8.1,61,0.00,,---,0.00,VWS V14.00,2013-04-19 09:25:00,
2013-04-19 04:30:00,43.3,30.8,29.68,NW,315,7.7,9.8,61,0.00,,---,0.00,VWS V14.00,2013-04-19 09:30:00,
2013-04-19 04:35:00,43.3,30.8,29.68,WSW,248,8.8,8.8,61,0.00,,---,0.00,VWS V14.00,2013-04-19 09:35:00,
2013-04-19 04:41:00,43.3,30.8,29.68,WNW,292,4.9,5.6,61,0.00,,---,0.00,VWS V14.00,2013-04-19 09:41:00,
2013-04-19 04:46:00,43.3,30.8,29.68,NW,315,5.8,7.4,61,0.00,,---,0.00,VWS V14.00,2013-04-19 09:46:00,
2013-04-19 04:51:00,43.2,29.0,29.68,WSW,248,5.2,5.2,57,0.00,,---,0.00,VWS V14.00,2013-04-19 09:51:00,
2013-04-19 04:57:00,43.0,29.6,29.68,WNW,292,7.2,9.6,59,0.00,,---,0.00,VWS V14.00,2013-04-19 09:57:00,
2013-04-19 05:02:00,43.0,29.2,29.68,North,0,13.3,13.3,58,0.00,,---,0.00,VWS V14.00,2013-04-19 10:02:00,
2013-04-19 05:07:00,43.0,29.6,29.68,West,270,9.1,9.1,59,0.00,,---,0.00,VWS V14.00,2013-04-19 10:07:00,
2013-04-19 05:12:00,43.0,29.2,29.68,West,270,6.9,8.7,58,0.00,,---,0.00,VWS V14.00,2013-04-19 10:12:00,
2013-04-19 05:18:00,42.8,29.1,29.68,WNW,292,5.2,7.8,58,0.00,,---,0.00,VWS V14.00,2013-04-19 10:18:00,
2013-04-19 05:23:00,42.8,28.6,29.68,WSW,248,4.9,9.6,57,0.00,,---,0.00,VWS V14.00,2013-04-19 10:23:00,
2013-04-19 05:29:00,42.6,28.9,29.68,SSW,202,10.0,10.0,58,0.00,,---,0.00,VWS V14.00,2013-04-19 10:29:00,
2013-04-19 05:34:00,42.4,28.7,29.71,West,270,5.5,7.4,58,0.00,,---,0.00,VWS V14.00,2013-04-19 10:34:00,
2013-04-19 05:40:00,42.3,28.1,29.71,WNW,292,5.5,7.4,57,0.00,,---,0.00,VWS V14.00,2013-04-19 10:40:00,
2013-04-19 05:47:00,42.3,27.7,29.71,WNW,292,5.2,5.2,56,0.00,,---,0.00,VWS V14.00,2013-04-19 10:47:00,
2013-04-19 05:52:00,42.1,27.1,29.71,ENE,68,5.5,7.2,55,0.00,,---,0.00,VWS V14.00,2013-04-19 10:52:00,
2013-04-19 05:58:00,42.1,27.1,29.71,NW,315,11.1,11.1,55,0.00,,---,0.00,VWS V14.00,2013-04-19 10:58:00,
2013-04-19 06:04:00,42.1,26.2,29.71,North,0,13.6,13.6,53,0.00,,---,0.00,VWS V14.00,2013-04-19 11:04:00,
2013-04-19 06:10:00,42.1,26.6,29.71,WNW,292,11.1,11.1,54,0.00,,---,0.00,VWS V14.00,2013-04-19 11:10:00,
2013-04-19 06:15:00,42.1,27.1,29.71,WSW,248,5.2,5.4,55,0.00,,---,0.00,VWS V14.00,2013-04-19 11:15:00,
2013-04-19 06:21:00,41.9,26.9,29.74,WNW,292,4.4,6.3,55,0.00,,---,0.00,VWS V14.00,2013-04-19 11:21:00,
2013-04-19 06:26:00,41.9,27.4,29.74,NW,315,4.6,4.6,56,0.00,,---,0.00,VWS V14.00,2013-04-19 11:26:00,
2013-04-19 06:32:00,41.9,28.2,29.74,WNW,292,2.4,2.4,58,0.00,,---,0.00,VWS V14.00,2013-04-19 11:32:00,
2013-04-19 06:38:00,41.7,28.0,29.74,West,270,4.6,4.6,58,0.00,,---,0.00,VWS V14.00,2013-04-19 11:38:00,
2013-04-19 06:43:00,41.9,28.2,29.74,NW,315,5.8,5.8,58,0.00,,---,0.00,VWS V14.00,2013-04-19 11:43:00,
2013-04-19 06:49:00,41.9,27.8,29.76,West,270,5.8,5.8,57,0.00,,---,0.00,VWS V14.00,2013-04-19 11:49:00,
2013-04-19 06:54:00,41.9,27.8,29.76,West,270,6.3,6.3,57,0.00,,---,0.00,VWS V14.00,2013-04-19 11:54:00,
2013-04-19 06:59:00,41.9,27.8,29.76,WNW,292,5.2,7.2,57,0.00,,---,0.00,VWS V14.00,2013-04-19 11:59:00,
2013-04-19 07:04:00,41.9,27.8,29.76,NNW,338,8.3,8.3,57,0.00,,---,0.00,VWS V14.00,2013-04-19 12:04:00,
2013-04-19 07:10:00,42.1,28.0,29.76,WNW,292,8.6,8.6,57,0.00,,---,0.00,VWS V14.00,2013-04-19 12:10:00,
2013-04-19 07:15:00,42.1,28.4,29.76,West,270,5.5,6.3,58,0.00,,---,0.00,VWS V14.00,2013-04-19 12:15:00,
2013-04-19 07:21:00,42.3,28.5,29.76,SSW,202,6.9,6.9,58,0.00,,---,0.00,VWS V14.00,2013-04-19 12:21:00,
2013-04-19 07:27:00,42.3,28.5,29.76,WNW,292,3.5,4.3,58,0.00,,---,0.00,VWS V14.00,2013-04-19 12:27:00,
2013-04-19 07:32:00,42.4,28.3,29.76,WSW,248,5.5,5.5,57,0.00,,---,0.00,VWS V14.00,2013-04-19 12:32:00,
2013-04-19 07:37:00,42.4,28.3,29.76,WNW,292,5.2,6.5,57,0.00,,---,0.00,VWS V14.00,2013-04-19 12:37:00,
2013-04-19 07:43:00,42.4,27.4,29.76,WNW,292,9.7,9.7,55,0.00,,---,0.00,VWS V14.00,2013-04-19 12:43:00,
2013-04-19 07:48:00,42.4,27.9,29.76,WNW,292,6.9,6.9,56,0.00,,---,0.00,VWS V14.00,2013-04-19 12:48:00,
2013-04-19 07:53:00,42.4,28.3,29.76,North,0,3.0,4.0,57,0.00,,---,0.00,VWS V14.00,2013-04-19 12:53:00,
2013-04-19 07:59:00,42.4,27.0,29.76,NW,315,8.6,8.6,54,0.00,,---,0.00,VWS V14.00,2013-04-19 12:59:00,
2013-04-19 08:04:00,42.4,26.5,29.76,NNW,338,8.3,8.3,53,0.00,,---,0.00,VWS V14.00,2013-04-19 13:04:00,
2013-04-19 08:10:00,42.4,25.6,29.76,WNW,292,10.8,10.8,51,0.00,,---,0.00,VWS V14.00,2013-04-19 13:10:00,
2013-04-19 08:15:00,42.6,25.8,29.76,WNW,292,14.4,14.4,51,0.00,,---,0.00,VWS V14.00,2013-04-19 13:15:00,
2013-04-19 08:21:00,42.8,25.9,29.79,WNW,292,10.2,10.5,51,0.00,,---,0.00,VWS V14.00,2013-04-19 13:21:00,
2013-04-19 08:27:00,42.8,25.0,29.79,West,270,9.1,9.1,49,0.00,,---,0.00,VWS V14.00,2013-04-19 13:27:00,
2013-04-19 08:33:00,42.8,24.5,29.79,WNW,292,5.2,5.2,48,0.00,,---,0.00,VWS V14.00,2013-04-19 13:33:00,
2013-04-19 08:39:00,43.2,25.8,29.79,West,270,8.3,8.3,50,0.00,,---,0.00,VWS V14.00,2013-04-19 13:39:00,
2013-04-19 08:44:00,43.3,26.0,29.79,WNW,292,6.0,6.5,50,0.00,,---,0.00,VWS V14.00,2013-04-19 13:44:00,
2013-04-19 08:49:00,43.3,26.0,29.79,NW,315,6.0,6.0,50,0.00,,---,0.00,VWS V14.00,2013-04-19 13:49:00,
2013-04-19 08:54:00,43.5,26.1,29.79,NNW,338,8.0,8.0,50,0.00,,---,0.00,VWS V14.00,2013-04-19 13:54:00,
2013-04-19 09:00:00,43.7,26.8,29.79,West,270,7.7,9.0,51,0.00,,---,0.00,VWS V14.00,2013-04-19 14:00:00,
2013-04-19 09:06:00,43.9,26.0,29.79,WNW,292,7.2,9.4,49,0.00,,---,0.00,VWS V14.00,2013-04-19 14:06:00,
2013-04-19 09:11:00,44.1,25.6,29.79,WNW,292,8.6,13.2,48,0.00,,---,0.00,VWS V14.00,2013-04-19 14:11:00,
2013-04-19 09:16:00,44.6,26.6,29.79,WNW,292,3.0,5.4,49,0.00,,---,0.00,VWS V14.00,2013-04-19 14:16:00,
2013-04-19 09:22:00,45.0,26.5,29.79,WSW,248,10.8,10.8,48,0.00,,---,0.00,VWS V14.00,2013-04-19 14:22:00,
2013-04-19 09:28:00,45.0,26.5,29.79,NNW,338,10.0,10.0,48,0.00,,---,0.00,VWS V14.00,2013-04-19 14:28:00,
2013-04-19 09:33:00,45.3,26.8,29.79,NW,315,13.3,13.3,48,0.00,,---,0.00,VWS V14.00,2013-04-19 14:33:00,
2013-04-19 09:38:00,45.5,27.0,29.79,WNW,292,8.8,10.7,48,0.00,,---,0.00,VWS V14.00,2013-04-19 14:38:00,
2013-04-19 09:44:00,45.3,24.7,29.79,NNW,338,13.3,13.3,44,0.00,,---,0.00,VWS V14.00,2013-04-19 14:44:00,
2013-04-19 09:49:00,45.9,26.8,29.79,WNW,292,11.6,11.6,47,0.00,,---,0.00,VWS V14.00,2013-04-19 14:49:00,
2013-04-19 09:54:00,45.9,25.7,29.79,NNW,338,10.5,11.9,45,0.00,,---,0.00,VWS V14.00,2013-04-19 14:54:00,
2013-04-19 10:00:00,46.4,26.2,29.79,WNW,292,10.5,10.5,45,0.00,,---,0.00,VWS V14.00,2013-04-19 15:00:00,
2013-04-19 10:05:00,46.9,26.7,29.79,WNW,292,10.5,11.9,45,0.00,,---,0.00,VWS V14.00,2013-04-19 15:05:00,
2013-04-19 10:10:00,47.5,27.2,29.79,NNE,22,7.2,7.4,45,0.00,,---,0.00,VWS V14.00,2013-04-19 15:10:00,
2013-04-19 10:16:00,47.3,25.4,29.79,WNW,292,6.0,6.0,42,0.00,,---,0.00,VWS V14.00,2013-04-19 15:16:00,
2013-04-19 10:22:00,47.1,25.8,29.79,WSW,248,11.1,11.1,43,0.00,,---,0.00,VWS V14.00,2013-04-19 15:22:00,
2013-04-19 10:27:00,47.1,25.8,29.79,WNW,292,8.8,11.0,43,0.00,,---,0.00,VWS V14.00,2013-04-19 15:27:00,
2013-04-19 10:32:00,47.1,25.8,29.79,NNE,22,5.8,8.1,43,0.00,,---,0.00,VWS V14.00,2013-04-19 15:32:00,
2013-04-19 10:38:00,47.1,25.8,29.79,NW,315,17.2,17.2,43,0.00,,---,0.00,VWS V14.00,2013-04-19 15:38:00,
2013-04-19 10:43:00,47.5,26.7,29.79,WNW,292,10.2,13.0,44,0.00,,---,0.00,VWS V14.00,2013-04-19 15:43:00,
2013-04-19 10:48:00,48.4,26.4,29.79,West,270,11.9,12.5,42,0.00,,---,0.00,VWS V14.00,2013-04-19 15:48:00,
2013-04-19 10:54:00,48.7,26.1,29.79,NW,315,5.2,7.6,41,0.00,,---,0.00,VWS V14.00,2013-04-19 15:54:00,
2013-04-19 10:59:00,48.7,26.7,29.79,WNW,292,11.1,11.1,42,0.00,,---,0.00,VWS V14.00,2013-04-19 15:59:00,
2013-04-19 11:04:00,48.2,24.4,29.82,North,0,7.7,7.7,39,0.00,,---,0.00,VWS V14.00,2013-04-19 16:04:00,
2013-04-19 11:09:00,48.0,24.9,29.82,WNW,292,10.5,13.2,40,0.00,,---,0.00,VWS V14.00,2013-04-19 16:09:00,
2013-04-19 11:14:00,47.8,25.3,29.82,WNW,292,8.8,10.3,41,0.00,,---,0.00,VWS V14.00,2013-04-19 16:14:00,
2013-04-19 11:19:00,48.7,26.1,29.82,WNW,292,19.2,19.2,41,0.00,,---,0.00,VWS V14.00,2013-04-19 16:19:00,
2013-04-19 11:25:00,49.3,26.6,29.82,WNW,292,9.1,9.1,41,0.00,,---,0.00,VWS V14.00,2013-04-19 16:25:00,
2013-04-19 11:30:00,48.7,24.9,29.82,North,0,9.1,11.2,39,0.00,,---,0.00,VWS V14.00,2013-04-19 16:30:00,
2013-04-19 11:36:00,48.4,25.2,29.82,NNE,22,16.7,16.7,40,0.00,,---,0.00,VWS V14.00,2013-04-19 16:36:00,
2013-04-19 11:41:00,48.9,26.3,29.82,SSW,202,5.5,9.6,41,0.00,,---,0.00,VWS V14.00,2013-04-19 16:41:00,
2013-04-19 11:47:00,49.6,26.3,29.82,NNW,338,8.3,9.6,40,0.00,,---,0.00,VWS V14.00,2013-04-19 16:47:00,
2013-04-19 11:53:00,49.8,26.5,29.82,NW,315,7.7,9.4,40,0.00,,---,0.00,VWS V14.00,2013-04-19 16:53:00,
2013-04-19 11:58:00,48.9,25.7,29.82,NNE,22,11.1,12.5,40,0.00,,---,0.00,VWS V14.00,2013-04-19 16:58:00,
2013-04-19 12:03:00,49.5,26.2,29.82,WNW,292,5.8,6.3,40,0.00,,---,0.00,VWS V14.00,2013-04-19 17:03:00,
2013-04-19 12:09:00,49.8,25.2,29.82,North,0,11.6,11.6,38,0.00,,---,0.00,VWS V14.00,2013-04-19 17:09:00,
2013-04-19 12:14:00,50.5,27.7,29.82,NNE,22,5.8,8.1,41,0.00,,---,0.00,VWS V14.00,2013-04-19 17:14:00,
2013-04-19 12:19:00,50.7,26.7,29.82,NW,315,7.2,7.2,39,0.00,,---,0.00,VWS V14.00,2013-04-19 17:19:00,
2013-04-19 12:24:00,49.8,26.5,29.82,North,0,11.6,11.6,40,0.00,,---,0.00,VWS V14.00,2013-04-19 17:24:00,
2013-04-19 12:29:00,49.3,25.4,29.82,NNW,338,8.0,8.7,39,0.00,,---,0.00,VWS V14.00,2013-04-19 17:29:00,
2013-04-19 12:35:00,50.2,26.8,29.82,NNE,22,8.8,8.8,40,0.00,,---,0.00,VWS V14.00,2013-04-19 17:35:00,
2013-04-19 12:40:00,50.2,26.2,29.82,WNW,292,7.7,7.7,39,0.00,,---,0.00,VWS V14.00,2013-04-19 17:40:00,
2013-04-19 12:46:00,50.5,26.5,29.82,SE,135,11.1,11.9,39,0.00,,---,0.00,VWS V14.00,2013-04-19 17:46:00,
2013-04-19 12:51:00,50.0,25.4,29.82,WNW,292,5.5,9.4,38,0.00,,---,0.00,VWS V14.00,2013-04-19 17:51:00,
2013-04-19 12:56:00,50.4,26.4,29.82,NW,315,14.7,14.7,39,0.00,,---,0.00,VWS V14.00,2013-04-19 17:56:00,
2013-04-19 13:01:00,50.5,26.5,29.82,NNW,338,13.0,13.0,39,0.00,,---,0.00,VWS V14.00,2013-04-19 18:01:00,
2013-04-19 13:06:00,50.2,25.6,29.82,NW,315,8.8,8.8,38,0.00,,---,0.00,VWS V14.00,2013-04-19 18:06:00,
2013-04-19 13:11:00,50.7,26.7,29.82,NW,315,14.4,14.8,39,0.00,,---,0.00,VWS V14.00,2013-04-19 18:11:00,
2013-04-19 13:17:00,50.4,25.7,29.82,NE,45,4.4,8.7,38,0.00,,---,0.00,VWS V14.00,2013-04-19 18:17:00,
2013-04-19 13:22:00,50.9,26.8,29.82,WNW,292,11.1,11.1,39,0.00,,---,0.00,VWS V14.00,2013-04-19 18:22:00,
2013-04-19 13:27:00,51.3,27.2,29.82,WSW,248,8.8,8.8,39,0.00,,---,0.00,VWS V14.00,2013-04-19 18:27:00,
2013-04-19 13:33:00,53.4,29.1,29.79,North,0,7.2,10.7,39,0.00,,---,0.00,VWS V14.00,2013-04-19 18:33:00,
2013-04-19 13:39:00,53.8,28.8,29.79,ENE,68,8.0,9.6,38,0.00,,---,0.00,VWS V14.00,2013-04-19 18:39:00,
2013-04-19 13:45:00,53.6,28.0,29.79,West,270,10.5,10.5,37,0.00,,---,0.00,VWS V14.00,2013-04-19 18:45:00,
2013-04-19 13:50:00,53.8,28.1,29.79,NNW,338,7.7,7.7,37,0.00,,---,0.00,VWS V14.00,2013-04-19 18:50:00,
2013-04-19 13:56:00,53.2,27.7,29.79,West,270,9.1,10.1,37,0.00,,---,0.00,VWS V14.00,2013-04-19 18:56:00,
2013-04-19 14:01:00,53.8,28.1,29.79,West,270,8.8,9.6,37,0.00,,---,0.00,VWS V14.00,2013-04-19 19:01:00,
2013-04-19 14:06:00,54.5,28.8,29.82,West,270,4.6,11.0,37,0.00,,---,0.00,VWS V14.00,2013-04-19 19:06:00,
2013-04-19 14:11:00,54.5,28.8,29.82,NW,315,11.9,16.6,37,0.00,,---,0.00,VWS V14.00,2013-04-19 19:11:00,
2013-04-19 14:17:00,54.3,28.6,29.82,North,0,11.9,11.9,37,0.00,,---,0.00,VWS V14.00,2013-04-19 19:17:00,
2013-04-19 14:22:00,55.2,29.4,29.82,WSW,248,8.3,8.3,37,0.00,,---,0.00,VWS V14.00,2013-04-19 19:22:00,
2013-04-19 14:27:00,54.5,28.1,29.82,WNW,292,9.1,9.1,36,0.00,,---,0.00,VWS V14.00,2013-04-19 19:27:00,
2013-04-19 14:32:00,54.5,28.1,29.82,WNW,292,10.5,10.5,36,0.00,,---,0.00,VWS V14.00,2013-04-19 19:32:00,
2013-04-19 14:38:00,54.7,28.9,29.82,NW,315,5.5,9.6,37,0.00,,---,0.00,VWS V14.00,2013-04-19 19:38:00,
2013-04-19 14:43:00,55.4,29.6,29.82,WSW,248,13.6,13.6,37,0.00,,---,0.00,VWS V14.00,2013-04-19 19:43:00,
2013-04-19 14:49:00,55.8,29.9,29.79,NE,45,4.9,4.9,37,0.00,,---,0.00,VWS V14.00,2013-04-19 19:49:00,
2013-04-19 14:55:00,54.7,28.3,29.79,NW,315,19.2,19.2,36,0.00,,---,0.00,VWS V14.00,2013-04-19 19:55:00,
2013-04-19 15:01:00,55.2,28.8,29.79,West,270,9.7,10.5,36,0.00,,---,0.00,VWS V14.00,2013-04-19 20:01:00,
2013-04-19 15:06:00,55.4,28.9,29.79,West,270,10.0,14.8,36,0.00,,---,0.00,VWS V14.00,2013-04-19 20:06:00,
2013-04-19 15:11:00,55.4,28.2,29.79,NW,315,14.1,14.1,35,0.00,,---,0.00,VWS V14.00,2013-04-19 20:11:00,
2013-04-19 15:16:00,55.2,28.8,29.79,NW,315,8.8,8.8,36,0.00,,---,0.00,VWS V14.00,2013-04-19 20:16:00,
2013-04-19 15:21:00,54.9,27.8,29.79,NW,315,7.7,9.6,35,0.00,,---,0.00,VWS V14.00,2013-04-19 20:21:00,
2013-04-19 15:27:00,54.3,27.3,29.79,WNW,292,5.2,7.4,35,0.00,,---,0.00,VWS V14.00,2013-04-19 20:27:00,
2013-04-19 15:32:00,54.0,27.0,29.79,NW,315,8.8,10.5,35,0.00,,---,0.00,VWS V14.00,2013-04-19 20:32:00,
2013-04-19 15:37:00,54.5,27.4,29.79,NW,315,10.5,10.5,35,0.00,,---,0.00,VWS V14.00,2013-04-19 20:37:00,
2013-04-19 15:42:00,54.7,27.6,29.79,WNW,292,14.1,14.1,35,0.00,,---,0.00,VWS V14.00,2013-04-19 20:42:00,
2013-04-19 15:48:00,55.0,27.9,29.79,NW,315,11.6,11.6,35,0.00,,---,0.00,VWS V14.00,2013-04-19 20:48:00,
2013-04-19 15:53:00,55.2,28.1,29.79,West,270,6.0,8.1,35,0.00,,---,0.00,VWS V14.00,2013-04-19 20:53:00,
2013-04-19 15:58:00,55.2,28.1,29.79,WSW,248,10.8,10.8,35,0.00,,---,0.00,VWS V14.00,2013-04-19 20:58:00,
2013-04-19 16:03:00,55.4,28.2,29.79,WSW,248,6.0,6.0,35,0.00,,---,0.00,VWS V14.00,2013-04-19 21:03:00,
2013-04-19 16:09:00,55.9,28.7,29.79,WNW,292,5.8,10.3,35,0.00,,---,0.00,VWS V14.00,2013-04-19 21:09:00,
2013-04-19 16:14:00,55.9,28.7,29.79,WSW,248,5.5,6.0,35,0.00,,---,0.00,VWS V14.00,2013-04-19 21:14:00,
2013-04-19 16:20:00,56.5,29.2,29.79,WSW,248,4.4,7.6,35,0.00,,---,0.00,VWS V14.00,2013-04-19 21:20:00,
2013-04-19 16:26:00,56.7,30.0,29.79,NW,315,6.3,9.8,36,0.00,,---,0.00,VWS V14.00,2013-04-19 21:26:00,
2013-04-19 16:31:00,56.7,29.3,29.79,WSW,248,5.5,11.0,35,0.00,,---,0.00,VWS V14.00,2013-04-19 21:31:00,
2013-04-19 16:36:00,56.8,27.3,29.79,SW,225,10.8,10.8,32,0.00,,---,0.00,VWS V14.00,2013-04-19 21:36:00,
2013-04-19 16:42:00,57.2,26.9,29.79,WSW,248,8.8,10.1,31,0.00,,---,0.00,VWS V14.00,2013-04-19 21:42:00,
2013-04-19 16:47:00,57.4,27.0,29.79,WSW,248,8.3,8.3,31,0.00,,---,0.00,VWS V14.00,2013-04-19 21:47:00,
2013-04-19 16:52:00,57.9,28.3,29.79,West,270,6.0,8.1,32,0.00,,---,0.00,VWS V14.00,2013-04-19 21:52:00,
2013-04-19 16:58:00,58.5,28.0,29.79,NE,45,4.1,6.9,31,0.00,,---,0.00,VWS V14.00,2013-04-19 21:58:00,
2013-04-19 17:03:00,59.0,26.8,29.79,NNW,338,8.0,8.5,29,0.00,,---,0.00,VWS V14.00,2013-04-19 22:03:00,
2013-04-19 17:08:00,59.0,26.8,29.79,NNW,338,6.0,6.0,29,0.00,,---,0.00,VWS V14.00,2013-04-19 22:08:00,
2013-04-19 17:13:00,59.2,26.1,29.79,West,270,11.9,11.9,28,0.00,,---,0.00,VWS V14.00,2013-04-19 22:13:00,
2013-04-19 17:19:00,59.0,26.0,29.79,NW,315,4.6,5.8,28,0.00,,---,0.00,VWS V14.00,2013-04-19 22:19:00,
2013-04-19 17:24:00,59.4,26.3,29.79,West,270,14.4,14.4,28,0.00,,---,0.00,VWS V14.00,2013-04-19 22:24:00,
2013-04-19 17:30:00,59.4,26.3,29.79,WSW,248,10.8,10.8,28,0.00,,---,0.00,VWS V14.00,2013-04-19 22:30:00,
2013-04-19 17:36:00,59.4,25.4,29.79,SSW,202,6.0,6.0,27,0.00,,---,0.00,VWS V14.00,2013-04-19 22:36:00,
2013-04-19 17:41:00,59.5,25.5,29.79,West,270,7.2,9.8,27,0.00,,---,0.00,VWS V14.00,2013-04-19 22:41:00,
2013-04-19 17:47:00,59.5,24.6,29.79,North,0,7.2,7.2,26,0.00,,---,0.00,VWS V14.00,2013-04-19 22:47:00,
2013-04-19 17:52:00,59.2,24.3,29.79,ENE,68,6.0,8.7,26,0.00,,---,0.00,VWS V14.00,2013-04-19 22:52:00,
2013-04-19 17:58:00,59.0,23.2,29.79,WNW,292,4.6,7.4,25,0.00,,---,0.00,VWS V14.00,2013-04-19 22:58:00,
2013-04-19 18:03:00,58.5,23.7,29.79,WNW,292,5.5,5.6,26,0.00,,---,0.00,VWS V14.00,2013-04-19 23:03:00,
2013-04-19 18:09:00,57.9,23.3,29.79,North,0,5.8,7.8,26,0.00,,---,0.00,VWS V14.00,2013-04-19 23:09:00,
2013-04-19 18:14:00,57.7,22.2,29.79,WSW,248,15.8,15.8,25,0.00,,---,0.00,VWS V14.00,2013-04-19 23:14:00,
2013-04-19 18:20:00,57.2,23.5,29.79,WSW,248,7.2,7.2,27,0.00,,---,0.00,VWS V14.00,2013-04-19 23:20:00,
2013-04-19 18:25:00,56.5,22.9,29.79,WSW,248,6.0,6.0,27,0.00,,---,0.00,VWS V14.00,2013-04-19 23:25:00,
2013-04-19 18:30:00,55.9,22.5,29.79,North,0,6.3,11.0,27,0.00,,---,0.00,VWS V14.00,2013-04-19 23:30:00,
2013-04-19 18:35:00,55.8,22.3,29.79,NW,315,6.6,6.6,27,0.00,,---,0.00,VWS V14.00,2013-04-19 23:35:00,
2013-04-19 18:41:00,55.2,21.8,29.79,West,270,6.3,8.7,27,0.00,,---,0.00,VWS V14.00,2013-04-19 23:41:00,
2013-04-19 18:46:00,55.0,22.5,29.79,NW,315,5.8,5.8,28,0.00,,---,0.00,VWS V14.00,2013-04-19 23:46:00,
2013-04-19 18:51:00,54.7,22.2,29.82,WSW,248,7.7,7.7,28,0.00,,---,0.00,VWS V14.00,2013-04-19 23:51:00,
2013-04-19 18:57:00,54.3,22.8,29.82,WSW,248,8.6,8.6,29,0.00,,---,0.00,VWS V14.00,2013-04-19 23:57:00,
2013-04-19 19:02:00,54.0,21.6,29.82,North,0,5.8,6.5,28,0.00,,---,0.00,VWS V14.00,2013-04-20 00:02:00,
2013-04-19 19:07:00,53.6,22.1,29.82,West,270,4.6,4.6,29,0.00,,---,0.00,VWS V14.00,2013-04-20 00:07:00,
2013-04-19 19:12:00,53.4,22.0,29.82,NNW,338,4.6,6.3,29,0.00,,---,0.00,VWS V14.00,2013-04-20 00:12:00,
2013-04-19 19:18:00,53.1,21.7,29.82,WNW,292,4.4,5.4,29,0.00,,---,0.00,VWS V14.00,2013-04-20 00:18:00,
2013-04-19 19:23:00,52.5,22.8,29.82,WNW,292,4.4,4.9,31,0.00,,---,0.00,VWS V14.00,2013-04-20 00:23:00,
2013-04-19 19:29:00,52.2,22.5,29.82,WNW,292,5.5,5.5,31,0.00,,---,0.00,VWS V14.00,2013-04-20 00:29:00,
2013-04-19 19:34:00,51.6,22.7,29.82,NW,315,4.6,4.6,32,0.00,,---,0.00,VWS V14.00,2013-04-20 00:34:00,
2013-04-19 19:40:00,51.1,22.3,29.82,SW,225,4.1,4.1,32,0.00,,---,0.00,VWS V14.00,2013-04-20 00:40:00,
2013-04-19 19:45:00,50.5,22.5,29.82,West,270,5.5,5.5,33,0.00,,---,0.00,VWS V14.00,2013-04-20 00:45:00,
2013-04-19 19:51:00,50.4,23.1,29.82,NW,315,3.5,3.5,34,0.00,,---,0.00,VWS V14.00,2013-04-20 00:51:00,
2013-04-19 19:57:00,50.0,23.4,29.82,West,270,4.1,4.1,35,0.00,,---,0.00,VWS V14.00,2013-04-20 00:57:00,
2013-04-19 20:03:00,50.0,24.1,29.82,WNW,292,4.6,4.6,36,0.00,,---,0.00,VWS V14.00,2013-04-20 01:03:00,
2013-04-19 20:08:00,49.6,23.8,29.82,NW,315,4.1,4.1,36,0.00,,---,0.00,VWS V14.00,2013-04-20 01:08:00,
2013-04-19 20:13:00,49.5,23.6,29.82,North,0,4.1,4.1,36,0.00,,---,0.00,VWS V14.00,2013-04-20 01:13:00,
2013-04-19 20:19:00,49.5,24.3,29.85,WNW,292,6.3,6.3,37,0.00,,---,0.00,VWS V14.00,2013-04-20 01:19:00,
2013-04-19 20:25:00,49.3,24.1,29.85,West,270,8.6,8.6,37,0.00,,---,0.00,VWS V14.00,2013-04-20 01:25:00,
2013-04-19 20:30:00,49.1,24.0,29.85,NW,315,3.8,3.8,37,0.00,,---,0.00,VWS V14.00,2013-04-20 01:30:00,
2013-04-19 20:36:00,49.1,24.0,29.85,WNW,292,3.5,3.5,37,0.00,,---,0.00,VWS V14.00,2013-04-20 01:36:00,
2013-04-19 20:41:00,48.9,23.8,29.85,WSW,248,2.7,2.7,37,0.00,,---,0.00,VWS V14.00,2013-04-20 01:41:00,
2013-04-19 20:47:00,48.6,23.5,29.85,NW,315,2.4,2.4,37,0.00,,---,0.00,VWS V14.00,2013-04-20 01:47:00,
2013-04-19 20:52:00,48.6,23.5,29.85,WNW,292,1.0,1.0,37,0.00,,---,0.00,VWS V14.00,2013-04-20 01:52:00,
2013-04-19 20:57:00,48.4,23.3,29.85,NW,315,3.0,3.0,37,0.00,,---,0.00,VWS V14.00,2013-04-20 01:57:00,
2013-04-19 21:03:00,48.0,23.0,29.88,WNW,292,2.7,2.7,37,0.00,,---,0.00,VWS V14.00,2013-04-20 02:03:00,
2013-04-19 21:08:00,47.8,22.9,29.88,NW,315,3.0,3.0,37,0.00,,---,0.00,VWS V14.00,2013-04-20 02:08:00,
2013-04-19 21:14:00,47.7,23.3,29.88,NW,315,1.0,1.3,38,0.00,,---,0.00,VWS V14.00,2013-04-20 02:14:00,
2013-04-19 21:20:00,47.5,23.2,29.88,WSW,248,3.8,3.8,38,0.00,,---,0.00,VWS V14.00,2013-04-20 02:20:00,
2013-04-19 21:25:00,47.3,23.0,29.88,WNW,292,1.0,1.3,38,0.00,,---,0.00,VWS V14.00,2013-04-20 02:25:00,
2013-04-19 21:31:00,47.3,23.0,29.88,NW,315,1.0,1.3,38,0.00,,---,0.00,VWS V14.00,2013-04-20 02:31:00,
2013-04-19 21:36:00,47.1,23.5,29.88,ENE,68,2.1,2.1,39,0.00,,---,0.00,VWS V14.00,2013-04-20 02:36:00,
2013-04-19 21:42:00,46.9,23.3,29.88,WNW,292,1.0,1.0,39,0.00,,---,0.00,VWS V14.00,2013-04-20 02:42:00,
2013-04-19 21:48:00,46.8,23.1,29.88,NW,315,3.5,3.5,39,0.00,,---,0.00,VWS V14.00,2013-04-20 02:48:00,
2013-04-19 21:53:00,46.6,23.0,29.88,WNW,292,1.0,0.0,39,0.00,,---,0.00,VWS V14.00,2013-04-20 02:53:00,
2013-04-19 22:00:00,46.4,22.8,29.88,WNW,292,1.0,0.0,39,0.00,,---,0.00,VWS V14.00,2013-04-20 03:00:00,
2013-04-19 22:06:00,46.0,23.1,29.91,West,270,1.0,0.0,40,0.00,,---,0.00,VWS V14.00,2013-04-20 03:06:00,
2013-04-19 22:11:00,45.9,22.9,29.91,West,270,1.0,0.0,40,0.00,,---,0.00,VWS V14.00,2013-04-20 03:11:00,
2013-04-19 22:16:00,45.5,23.2,29.91,WNW,292,1.0,0.0,41,0.00,,---,0.00,VWS V14.00,2013-04-20 03:16:00,
2013-04-19 22:21:00,45.3,23.0,29.88,WNW,292,1.0,0.0,41,0.00,,---,0.00,VWS V14.00,2013-04-20 03:21:00,
2013-04-19 22:27:00,45.1,23.4,29.88,WNW,292,1.0,0.0,42,0.00,,---,0.00,VWS V14.00,2013-04-20 03:27:00,
2013-04-19 22:32:00,44.8,23.7,29.91,WNW,292,1.0,0.0,43,0.00,,---,0.00,VWS V14.00,2013-04-20 03:32:00,
2013-04-19 22:38:00,44.2,24.3,29.91,WNW,292,1.0,0.0,45,0.00,,---,0.00,VWS V14.00,2013-04-20 03:38:00,
2013-04-19 22:44:00,43.7,24.3,29.91,WNW,292,1.0,0.0,46,0.00,,---,0.00,VWS V14.00,2013-04-20 03:44:00,
2013-04-19 22:49:00,43.5,24.1,29.88,WNW,292,1.0,0.0,46,0.00,,---,0.00,VWS V14.00,2013-04-20 03:49:00,
2013-04-19 22:55:00,43.0,24.6,29.88,WNW,292,1.0,0.0,48,0.00,,---,0.00,VWS V14.00,2013-04-20 03:55:00,
2013-04-19 23:00:00,42.6,24.8,29.88,NW,315,1.0,0.0,49,0.00,,---,0.00,VWS V14.00,2013-04-20 04:00:00,
2013-04-19 23:02:00,42.4,24.6,29.88,NW,315,1.0,0.0,49,0.00,,---,0.00,VWS V14.00,2013-04-20 04:02:00,
2013-04-19 23:03:00,42.4,24.6,29.88,NW,315,1.0,0.0,49,0.00,,---,0.00,VWS V14.00,2013-04-20 04:03:00,
2013-04-19 23:07:00,42.3,25.0,29.88,NW,315,3.0,3.0,50,0.00,,---,0.00,VWS V14.00,2013-04-20 04:07:00,
2013-04-19 23:09:00,42.3,25.0,29.88,NW,315,1.0,0.0,50,0.00,,---,0.00,VWS V14.00,2013-04-20 04:09:00,
2013-04-19 23:14:00,41.7,24.9,29.88,NW,315,1.0,0.0,51,0.00,,---,0.00,VWS V14.00,2013-04-20 04:14:00,
2013-04-19 23:19:00,41.5,25.2,29.91,NW,315,1.0,0.0,52,0.00,,---,0.00,VWS V14.00,2013-04-20 04:19:00,
2013-04-19 23:24:00,41.2,25.4,29.91,NW,315,1.0,0.0,53,0.00,,---,0.00,VWS V14.00,2013-04-20 04:24:00,
2013-04-19 23:30:00,40.8,25.5,29.91,NW,315,1.0,0.0,54,0.00,,---,0.00,VWS V14.00,2013-04-20 04:30:00,
2013-04-19 23:35:00,40.6,25.8,29.91,NW,315,1.0,0.0,55,0.00,,---,0.00,VWS V14.00,2013-04-20 04:35:00,
2013-04-19 23:41:00,40.5,26.0,29.91,NW,315,1.0,0.0,56,0.00,,---,0.00,VWS V14.00,2013-04-20 04:41:00,
2013-04-19 23:46:00,40.3,25.9,29.91,NW,315,1.0,1.1,56,0.00,,---,0.00,VWS V14.00,2013-04-20 04:46:00,
2013-04-19 23:52:00,39.9,25.9,29.91,NW,315,2.1,2.1,57,0.00,,---,0.00,VWS V14.00,2013-04-20 04:52:00,
2013-04-19 23:57:00,39.9,26.4,29.91,NW,315,1.0,0.0,58,0.00,,---,0.00,VWS V14.00,2013-04-20 04:57:00,